createdAt,value
2022-10-11T00:00:13.365Z,8.75
2022-10-11T00:02:40.476Z,9.40
2022-10-11T00:05:08.386Z,9.95
2022-10-11T00:07:37.061Z,9.15
2022-10-11T00:10:05.996Z,9.48
2022-10-11T00:12:33.441Z,8.60
2022-10-11T00:15:06.751Z,8.98
2022-10-11T00:17:34.286Z,9.07
2022-10-11T00:20:01.435Z,9.95
2022-10-11T00:22:28.497Z,9.75
2022-10-11T00:24:55.636Z,9.52
2022-10-11T00:27:24.846Z,9.30
2022-10-11T00:29:54.216Z,10.25
2022-10-11T00:32:21.318Z,9.48
2022-10-11T00:34:48.431Z,9.65
2022-10-11T00:37:15.587Z,9.30
2022-10-11T00:39:42.617Z,9.77
2022-10-11T00:42:14.946Z,9.75
2022-10-11T00:44:48.978Z,9.13
2022-10-11T00:47:19.534Z,9.15
2022-10-11T00:49:55.681Z,9.45
2022-10-11T00:52:34.761Z,9.90
2022-10-11T00:55:22.546Z,9.35
2022-10-11T00:57:52.857Z,9.07
2022-10-11T01:00:20.556Z,9.40
2022-10-11T01:02:48.156Z,9.55
2022-10-11T01:05:29.102Z,9.48
2022-10-11T01:07:59.051Z,9.88
2022-10-11T01:10:27.036Z,9.30
2022-10-11T01:13:06.767Z,9.60
2022-10-11T01:15:48.506Z,9.20
2022-10-11T01:18:30.802Z,9.45
2022-10-11T01:21:10.437Z,9.77
2022-10-11T01:23:58.846Z,10.82
2022-10-11T01:27:00.126Z,9.57
2022-10-11T01:29:50.185Z,9.52
2022-10-11T01:32:29.626Z,8.95
2022-10-11T01:35:11.047Z,8.65
2022-10-11T01:37:50.077Z,9.32
2022-10-11T01:40:34.876Z,8.65
2022-10-11T01:43:04.086Z,9.50
2022-10-11T01:45:32.951Z,8.63
2022-10-11T01:48:12.697Z,9.77
2022-10-11T01:50:41.666Z,9.25
2022-10-11T01:53:42.817Z,8.93
2022-10-11T01:56:22.979Z,9.90
2022-10-11T01:58:52.506Z,9.30
2022-10-11T02:01:40.090Z,9.35
2022-10-11T02:04:14.386Z,9.60
2022-10-11T02:07:17.955Z,9.38
2022-10-11T02:10:12.166Z,9.68
2022-10-11T02:12:56.706Z,9.65
2022-10-11T02:15:27.566Z,9.50
2022-10-11T02:17:59.576Z,9.85
2022-10-11T02:20:30.386Z,9.85
2022-10-11T02:23:05.878Z,9.77
2022-10-11T02:25:36.416Z,9.63
2022-10-11T02:28:17.558Z,10.13
2022-10-11T02:30:47.943Z,9.45
2022-10-11T02:33:18.217Z,9.98
2022-10-11T02:35:49.796Z,9.90
2022-10-11T02:38:27.896Z,9.13
2022-10-11T02:41:05.927Z,9.40
2022-10-11T02:44:03.221Z,9.23
2022-10-11T02:46:31.427Z,9.43
2022-10-11T02:49:02.101Z,9.98
2022-10-11T02:51:32.896Z,10.05
2022-10-11T02:54:00.285Z,8.95
2022-10-11T02:56:27.355Z,10.15
2022-10-11T02:58:54.416Z,9.18
2022-10-11T03:01:21.525Z,10.07
2022-10-11T03:03:48.746Z,10.35
2022-10-11T03:06:15.836Z,10.73
2022-10-11T03:08:42.857Z,10.23
2022-10-11T03:11:09.906Z,10.60
2022-10-11T03:13:36.966Z,11.15
2022-10-11T03:16:04.110Z,10.48
2022-10-11T03:18:33.506Z,10.75
2022-10-11T03:21:00.515Z,11.45
2022-10-11T03:23:27.662Z,10.77
2022-10-11T03:25:54.796Z,10.57
2022-10-11T03:28:22.091Z,11.32
2022-10-11T03:30:50.505Z,11.45
2022-10-11T03:33:18.167Z,11.10
2022-10-11T03:35:46.470Z,11.23
2022-10-11T03:38:15.707Z,11.23
2022-10-11T03:40:45.837Z,11.38
2022-10-11T03:43:12.907Z,10.45
2022-10-11T03:45:42.474Z,11.95
2022-10-11T03:48:10.760Z,10.60
2022-10-11T03:50:38.051Z,10.00
2022-10-11T03:53:09.196Z,10.38
2022-10-11T03:55:42.016Z,9.10
2022-10-11T03:58:09.467Z,10.63
2022-10-11T04:00:36.883Z,10.18
2022-10-11T04:03:04.266Z,10.05
2022-10-11T04:05:31.550Z,9.48
2022-10-11T04:07:58.571Z,9.63
2022-10-11T04:10:25.625Z,11.50
2022-10-11T04:12:52.708Z,10.35
2022-10-11T04:15:19.881Z,12.80
2022-10-11T04:17:46.916Z,11.13
2022-10-11T04:20:14.156Z,10.93
2022-10-11T04:22:41.236Z,10.50
2022-10-11T04:25:09.228Z,10.73
2022-10-11T04:27:36.316Z,10.52
2022-10-11T04:30:03.975Z,11.63
2022-10-11T04:32:31.043Z,10.70
2022-10-11T04:34:58.117Z,11.50
2022-10-11T04:37:25.187Z,11.20
2022-10-11T04:39:52.257Z,14.02
2022-10-11T04:42:21.526Z,11.80
2022-10-11T04:44:50.106Z,12.20
2022-10-11T04:47:17.289Z,12.10
2022-10-11T04:49:44.466Z,11.35
2022-10-11T04:52:14.906Z,12.15
2022-10-11T04:54:42.076Z,11.70
2022-10-11T04:57:09.159Z,11.70
2022-10-11T04:59:38.365Z,10.27
2022-10-11T05:02:07.827Z,11.60
2022-10-11T05:04:34.845Z,11.27
2022-10-11T05:07:01.947Z,11.15
2022-10-11T05:09:29.060Z,10.90
2022-10-11T05:11:56.088Z,11.20
2022-10-11T05:14:23.106Z,11.10
2022-10-11T05:16:50.167Z,10.95
2022-10-11T05:19:17.306Z,11.40
2022-10-11T05:21:44.376Z,11.10
2022-10-11T05:24:11.406Z,11.95
2022-10-11T05:26:38.445Z,12.13
2022-10-11T05:29:05.451Z,12.65
2022-10-11T05:31:33.257Z,12.43
2022-10-11T05:34:00.436Z,11.70
2022-10-11T05:36:27.516Z,11.15
2022-10-11T05:38:54.666Z,11.90
2022-10-11T05:41:21.896Z,12.65
2022-10-11T05:43:48.936Z,12.27
2022-10-11T05:46:16.107Z,11.65
2022-10-11T05:48:43.087Z,11.77
2022-10-11T05:51:11.666Z,12.13
2022-10-11T05:53:39.505Z,12.82
2022-10-11T05:56:21.506Z,12.35
2022-10-11T05:58:51.455Z,12.38
2022-10-11T06:01:33.061Z,11.45
2022-10-11T06:04:00.192Z,12.95
2022-10-11T06:06:27.386Z,14.23
2022-10-11T06:08:54.381Z,13.07
2022-10-11T06:11:31.162Z,12.20
2022-10-11T06:13:58.476Z,11.88
2022-10-11T06:16:26.172Z,11.75
2022-10-11T06:18:54.817Z,12.57
2022-10-11T06:21:23.698Z,8.70
2022-10-11T06:23:54.560Z,9.40
2022-10-11T06:26:24.036Z,10.15
2022-10-11T06:28:53.365Z,9.38
2022-10-11T06:31:20.636Z,10.30
2022-10-11T06:33:47.716Z,9.77
2022-10-11T06:36:17.956Z,9.60
2022-10-11T06:38:45.567Z,9.73
2022-10-11T06:41:30.086Z,8.80
2022-10-11T06:43:57.977Z,8.75
2022-10-11T06:46:33.391Z,8.68
2022-10-11T06:49:00.488Z,8.70
2022-10-11T06:51:29.126Z,8.30
2022-10-11T06:53:58.967Z,9.15
2022-10-11T06:56:27.610Z,8.25
2022-10-11T06:58:56.438Z,12.05
2022-10-11T07:01:36.686Z,11.82
2022-10-11T07:04:04.246Z,12.55
2022-10-11T07:06:31.926Z,11.68
2022-10-11T07:09:00.956Z,12.65
2022-10-11T07:11:28.516Z,13.00
2022-10-11T07:14:02.956Z,12.43
2022-10-11T07:16:30.198Z,12.88
2022-10-11T07:19:00.965Z,13.07
2022-10-11T07:21:30.701Z,12.80
2022-10-11T07:23:57.938Z,13.88
2022-10-11T07:26:32.417Z,13.95
2022-10-11T07:29:01.260Z,14.13
2022-10-11T07:31:28.702Z,13.63
2022-10-11T07:33:55.851Z,14.35
2022-10-11T07:36:23.535Z,14.15
2022-10-11T07:38:50.878Z,13.95
2022-10-11T07:41:18.601Z,13.57
2022-10-11T07:43:48.038Z,13.45
2022-10-11T07:46:15.536Z,13.55
2022-10-11T07:48:42.640Z,13.35
2022-10-11T07:51:17.345Z,13.85
2022-10-11T07:53:49.139Z,13.83
2022-10-11T07:56:21.950Z,12.98
2022-10-11T07:58:57.769Z,12.57
2022-10-11T08:03:09.726Z,12.90
2022-10-11T08:04:22.346Z,13.63
2022-10-11T08:06:52.677Z,12.48
2022-10-11T08:09:20.637Z,12.90
2022-10-11T08:11:47.786Z,12.77
2022-10-11T08:14:15.136Z,12.65
2022-10-11T08:16:42.376Z,13.15
2022-10-11T08:19:11.887Z,12.23
2022-10-11T08:21:39.056Z,13.43
2022-10-11T08:24:10.286Z,13.15
2022-10-11T08:26:37.336Z,13.23
2022-10-11T08:29:05.395Z,10.95
2022-10-11T08:31:36.386Z,12.15
2022-10-11T08:34:03.416Z,12.88
2022-10-11T08:36:33.686Z,11.60
2022-10-11T08:39:01.482Z,12.05
2022-10-11T08:41:32.236Z,13.68
2022-10-11T08:44:12.140Z,13.80
2022-10-11T08:46:46.016Z,13.20
2022-10-11T08:49:19.356Z,13.70
2022-10-11T08:51:52.393Z,15.32
2022-10-11T08:54:35.747Z,14.32
2022-10-11T08:57:25.187Z,14.43
2022-10-11T08:59:58.826Z,14.68
2022-10-11T09:03:07.392Z,14.57
2022-10-11T09:05:39.725Z,14.07
2022-10-11T09:08:28.758Z,14.88
2022-10-11T09:11:36.509Z,15.07
2022-10-11T09:14:26.637Z,13.82
2022-10-11T09:17:09.042Z,14.07
2022-10-11T09:20:01.545Z,14.70
2022-10-11T09:30:22.236Z,14.50
2022-10-11T09:32:54.821Z,16.33
2022-10-11T09:35:23.360Z,17.65
2022-10-11T09:38:04.666Z,16.48
2022-10-11T10:46:37.966Z,17.50
2022-10-11T10:57:32.743Z,17.60
2022-10-11T11:03:53.656Z,18.15
2022-10-11T11:06:27.076Z,18.15
2022-10-11T11:09:23.367Z,18.77
2022-10-11T11:14:47.666Z,16.83
2022-10-11T11:24:24.766Z,18.40
2022-10-11T11:44:48.567Z,14.32
2022-10-11T11:47:39.396Z,16.70
2022-10-11T11:50:30.467Z,16.00
2022-10-11T11:53:07.810Z,15.93
2022-10-11T11:55:55.546Z,16.20
2022-10-11T11:58:38.558Z,15.05
2022-10-11T12:01:36.646Z,16.25
2022-10-11T12:04:39.686Z,15.68
2022-10-11T12:07:16.679Z,16.67
2022-10-11T12:14:39.408Z,16.63
2022-10-11T12:17:17.092Z,16.77
2022-10-11T12:20:01.935Z,17.65
2022-10-11T12:22:31.566Z,16.42
2022-10-11T12:25:01.437Z,16.92
2022-10-11T12:27:50.475Z,15.48
2022-10-11T12:30:52.106Z,14.75
2022-10-11T12:33:21.700Z,16.75
2022-10-11T12:36:08.537Z,16.70
2022-10-11T12:38:38.394Z,15.15
2022-10-11T12:53:18.836Z,12.65
2022-10-11T14:30:27.374Z,7.88
2022-10-11T14:32:57.022Z,7.00
2022-10-11T14:35:27.546Z,7.40
2022-10-11T14:37:56.428Z,6.78
2022-10-11T14:40:30.915Z,6.50
2022-10-11T14:43:00.567Z,6.67
2022-10-11T14:45:29.977Z,6.22
2022-10-11T14:48:04.801Z,6.50
2022-10-11T14:50:48.775Z,5.97
2022-10-11T14:53:21.493Z,5.70
2022-10-11T14:56:15.699Z,6.20
2022-10-11T14:58:55.209Z,5.82
2022-10-11T15:01:32.991Z,5.90
2022-10-11T15:04:18.577Z,6.00
2022-10-11T15:10:22.839Z,5.65
2022-10-11T15:14:15.369Z,5.53
2022-10-11T15:17:07.957Z,7.30
